sensor_id;sensor_type;location;lat;lon;timestamp;pressure;altitude;pressure_sealevel;temperature;humidity
50592;BME280;36548;50.506;30.834;2022-12-31T00:00:45;100624.47;;;6.41;70.81
50592;BME280;36548;50.506;30.834;2022-12-31T00:01:54;100625.84;;;6.51;70.47
50592;BME280;36548;50.506;30.834;2022-12-31T00:03:05;100623.59;;;6.62;70.11
50592;BME280;36548;50.506;30.834;2022-12-31T00:04:16;100631.25;;;6.70;69.42
50592;BME280;36548;50.506;30.834;2022-12-31T00:05:36;100634.02;;;6.89;68.98
50592;BME280;36548;50.506;30.834;2022-12-31T00:06:46;100633.40;;;6.82;68.49
50592;BME280;36548;50.506;30.834;2022-12-31T00:07:56;100630.34;;;6.92;68.55
50592;BME280;36548;50.506;30.834;2022-12-31T00:09:06;100637.42;;;6.93;68.13
50592;BME280;36548;50.506;30.834;2022-12-31T00:10:18;100633.87;;;6.92;68.44
50592;BME280;36548;50.506;30.834;2022-12-31T00:11:35;100634.62;;;6.96;68.47
50592;BME280;36548;50.506;30.834;2022-12-31T00:12:45;100631.94;;;6.75;68.60
50592;BME280;36548;50.506;30.834;2022-12-31T00:13:55;100630.39;;;6.70;69.25
50592;BME280;36548;50.506;30.834;2022-12-31T00:15:12;100635.59;;;6.73;69.31
50592;BME280;36548;50.506;30.834;2022-12-31T00:17:43;100631.59;;;6.62;69.79
50592;BME280;36548;50.506;30.834;2022-12-31T00:18:58;100635.01;;;6.44;69.51
50592;BME280;36548;50.506;30.834;2022-12-31T00:20:08;100641.46;;;6.38;69.81
50592;BME280;36548;50.506;30.834;2022-12-31T00:21:24;100634.45;;;6.36;69.95
50592;BME280;36548;50.506;30.834;2022-12-31T00:22:33;100638.63;;;6.21;70.38
50592;BME280;36548;50.506;30.834;2022-12-31T00:23:43;100646.80;;;6.16;70.85
50592;BME280;36548;50.506;30.834;2022-12-31T00:24:51;100642.45;;;6.13;71.15
50592;BME280;36548;50.506;30.834;2022-12-31T00:27:24;100639.30;;;6.26;70.92
50592;BME280;36548;50.506;30.834;2022-12-31T00:28:34;100635.91;;;6.22;70.84
50592;BME280;36548;50.506;30.834;2022-12-31T00:29:50;100638.73;;;6.40;70.34
50592;BME280;36548;50.506;30.834;2022-12-31T00:31:17;100644.13;;;6.38;70.41
50592;BME280;36548;50.506;30.834;2022-12-31T00:32:27;100648.41;;;6.42;69.84
50592;BME280;36548;50.506;30.834;2022-12-31T00:33:36;100651.46;;;6.55;69.89
50592;BME280;36548;50.506;30.834;2022-12-31T00:34:45;100643.39;;;6.57;69.26
50592;BME280;36548;50.506;30.834;2022-12-31T00:36:04;100646.64;;;6.63;69.62
50592;BME280;36548;50.506;30.834;2022-12-31T00:37:13;100654.64;;;6.63;69.47
50592;BME280;36548;50.506;30.834;2022-12-31T00:38:22;100650.44;;;6.58;69.77
50592;BME280;36548;50.506;30.834;2022-12-31T00:39:37;100651.19;;;6.61;69.82
50592;BME280;36548;50.506;30.834;2022-12-31T00:40:46;100653.58;;;6.47;70.22
50592;BME280;36548;50.506;30.834;2022-12-31T00:41:56;100656.67;;;6.36;69.84
50592;BME280;36548;50.506;30.834;2022-12-31T00:43:05;100656.11;;;6.28;70.13
50592;BME280;36548;50.506;30.834;2022-12-31T00:44:13;100659.70;;;6.27;70.62
50592;BME280;36548;50.506;30.834;2022-12-31T00:45:22;100655.42;;;6.23;70.45
50592;BME280;36548;50.506;30.834;2022-12-31T00:46:37;100657.79;;;6.30;70.54
50592;BME280;36548;50.506;30.834;2022-12-31T00:47:46;100650.15;;;6.21;70.67
50592;BME280;36548;50.506;30.834;2022-12-31T00:48:56;100658.97;;;6.23;70.56
50592;BME280;36548;50.506;30.834;2022-12-31T00:50:06;100655.06;;;6.32;70.64
50592;BME280;36548;50.506;30.834;2022-12-31T00:51:17;100653.87;;;6.39;70.36
50592;BME280;36548;50.506;30.834;2022-12-31T00:52:26;100657.95;;;6.48;70.15
50592;BME280;36548;50.506;30.834;2022-12-31T00:53:36;100663.84;;;6.56;69.96
50592;BME280;36548;50.506;30.834;2022-12-31T00:54:51;100656.70;;;6.79;69.79
50592;BME280;36548;50.506;30.834;2022-12-31T00:56:08;100656.80;;;6.76;69.50
50592;BME280;36548;50.506;30.834;2022-12-31T00:57:18;100658.23;;;6.85;69.21
50592;BME280;36548;50.506;30.834;2022-12-31T00:58:29;100660.70;;;6.89;68.79
50592;BME280;36548;50.506;30.834;2022-12-31T00:59:38;100653.69;;;6.87;68.81
50592;BME280;36548;50.506;30.834;2022-12-31T01:02:31;100659.47;;;6.76;68.75
50592;BME280;36548;50.506;30.834;2022-12-31T01:03:41;100668.32;;;6.56;69.23
50592;BME280;36548;50.506;30.834;2022-12-31T01:04:50;100664.11;;;6.50;69.62
50592;BME280;36548;50.506;30.834;2022-12-31T01:06:06;100672.05;;;6.52;69.79
50592;BME280;36548;50.506;30.834;2022-12-31T01:07:15;100674.64;;;6.31;69.68
50592;BME280;36548;50.506;30.834;2022-12-31T01:08:25;100668.88;;;6.20;69.80
50592;BME280;36548;50.506;30.834;2022-12-31T01:09:34;100669.10;;;6.13;70.53
50592;BME280;36548;50.506;30.834;2022-12-31T01:10:48;100677.16;;;6.12;71.15
50592;BME280;36548;50.506;30.834;2022-12-31T01:12:23;100666.41;;;6.15;71.05
50592;BME280;36548;50.506;30.834;2022-12-31T01:13:32;100676.66;;;6.02;70.91
50592;BME280;36548;50.506;30.834;2022-12-31T01:14:42;100683.54;;;6.08;71.20
50592;BME280;36548;50.506;30.834;2022-12-31T01:15:52;100672.59;;;6.16;71.28
50592;BME280;36548;50.506;30.834;2022-12-31T01:17:01;100677.56;;;6.25;70.86
50592;BME280;36548;50.506;30.834;2022-12-31T01:18:10;100681.72;;;6.32;70.40
50592;BME280;36548;50.506;30.834;2022-12-31T01:19:27;100669.44;;;6.50;69.96
50592;BME280;36548;50.506;30.834;2022-12-31T01:20:40;100678.50;;;6.46;69.84
50592;BME280;36548;50.506;30.834;2022-12-31T01:21:50;100683.50;;;6.54;69.59
50592;BME280;36548;50.506;30.834;2022-12-31T01:22:59;100679.75;;;6.59;69.70
50592;BME280;36548;50.506;30.834;2022-12-31T01:24:15;100674.45;;;6.58;68.88
50592;BME280;36548;50.506;30.834;2022-12-31T01:25:23;100683.08;;;6.42;69.62
50592;BME280;36548;50.506;30.834;2022-12-31T01:26:32;100675.47;;;6.33;69.91
50592;BME280;36548;50.506;30.834;2022-12-31T01:27:41;100681.09;;;6.25;70.25
50592;BME280;36548;50.506;30.834;2022-12-31T01:28:50;100677.86;;;6.17;70.67
50592;BME280;36548;50.506;30.834;2022-12-31T01:30:07;100669.73;;;6.20;70.73
50592;BME280;36548;50.506;30.834;2022-12-31T01:31:18;100689.76;;;6.08;71.09
50592;BME280;36548;50.506;30.834;2022-12-31T01:32:33;100684.02;;;6.19;71.01
50592;BME280;36548;50.506;30.834;2022-12-31T01:33:43;100689.63;;;6.11;70.62
50592;BME280;36548;50.506;30.834;2022-12-31T01:34:51;100685.73;;;6.20;70.78
50592;BME280;36548;50.506;30.834;2022-12-31T01:36:06;100681.88;;;6.27;70.42
50592;BME280;36548;50.506;30.834;2022-12-31T01:37:15;100675.47;;;6.33;70.15
50592;BME280;36548;50.506;30.834;2022-12-31T01:38:30;100671.35;;;6.46;69.45
50592;BME280;36548;50.506;30.834;2022-12-31T01:39:40;100670.13;;;6.33;69.34
50592;BME280;36548;50.506;30.834;2022-12-31T01:40:53;100675.97;;;6.43;69.59
50592;BME280;36548;50.506;30.834;2022-12-31T01:42:02;100661.02;;;6.39;69.76
50592;BME280;36548;50.506;30.834;2022-12-31T01:43:19;100667.70;;;6.49;69.38
50592;BME280;36548;50.506;30.834;2022-12-31T01:45:43;100675.89;;;6.22;70.01
50592;BME280;36548;50.506;30.834;2022-12-31T01:46:56;100690.33;;;6.17;70.44
50592;BME280;36548;50.506;30.834;2022-12-31T01:48:08;100684.78;;;5.99;70.37
50592;BME280;36548;50.506;30.834;2022-12-31T01:49:35;100681.19;;;6.00;71.25
50592;BME280;36548;50.506;30.834;2022-12-31T01:50:45;100687.44;;;5.99;71.09
50592;BME280;36548;50.506;30.834;2022-12-31T01:53:16;100678.12;;;6.11;70.76
50592;BME280;36548;50.506;30.834;2022-12-31T01:54:28;100677.29;;;6.09;70.87
50592;BME280;36548;50.506;30.834;2022-12-31T01:55:45;100679.89;;;6.10;70.25
50592;BME280;36548;50.506;30.834;2022-12-31T01:56:55;100679.54;;;6.20;70.46
50592;BME280;36548;50.506;30.834;2022-12-31T01:58:11;100684.62;;;6.26;70.12
50592;BME280;36548;50.506;30.834;2022-12-31T01:59:22;100692.02;;;6.19;69.67
50592;BME280;36548;50.506;30.834;2022-12-31T02:00:39;100683.08;;;6.42;70.02
50592;BME280;36548;50.506;30.834;2022-12-31T02:01:49;100682.41;;;6.37;69.87
50592;BME280;36548;50.506;30.834;2022-12-31T02:03:04;100688.41;;;6.42;69.61
50592;BME280;36548;50.506;30.834;2022-12-31T02:04:16;100693.38;;;6.52;69.78
50592;BME280;36548;50.506;30.834;2022-12-31T02:07:07;100685.58;;;6.47;69.23
50592;BME280;36548;50.506;30.834;2022-12-31T02:08:17;100689.66;;;6.34;69.88
50592;BME280;36548;50.506;30.834;2022-12-31T02:09:26;100689.50;;;6.14;69.69
50592;BME280;36548;50.506;30.834;2022-12-31T02:10:35;100693.34;;;6.07;70.25
50592;BME280;36548;50.506;30.834;2022-12-31T02:11:44;100698.03;;;6.01;70.71
50592;BME280;36548;50.506;30.834;2022-12-31T02:12:54;100690.17;;;5.97;71.28
50592;BME280;36548;50.506;30.834;2022-12-31T02:14:12;100692.03;;;5.94;71.43
50592;BME280;36548;50.506;30.834;2022-12-31T02:15:23;100693.72;;;5.96;71.47
50592;BME280;36548;50.506;30.834;2022-12-31T02:21:42;100699.81;;;6.24;70.45
50592;BME280;36548;50.506;30.834;2022-12-31T02:30:26;100709.46;;;6.04;70.40
50592;BME280;36548;50.506;30.834;2022-12-31T02:31:44;100706.31;;;5.93;71.06
50592;BME280;36548;50.506;30.834;2022-12-31T02:33:00;100711.06;;;5.85;71.33
50592;BME280;36548;50.506;30.834;2022-12-31T02:34:12;100717.48;;;5.79;71.48
50592;BME280;36548;50.506;30.834;2022-12-31T02:36:41;100719.14;;;5.81;71.32
50592;BME280;36548;50.506;30.834;2022-12-31T02:38:06;100717.61;;;6.00;71.31
50592;BME280;36548;50.506;30.834;2022-12-31T02:39:16;100722.23;;;5.94;70.88
50592;BME280;36548;50.506;30.834;2022-12-31T02:40:26;100719.63;;;5.93;70.17
50592;BME280;36548;50.506;30.834;2022-12-31T02:41:35;100728.42;;;5.95;70.26
50592;BME280;36548;50.506;30.834;2022-12-31T02:42:59;100726.25;;;6.06;70.86
50592;BME280;36548;50.506;30.834;2022-12-31T02:44:29;100731.30;;;6.14;70.27
50592;BME280;36548;50.506;30.834;2022-12-31T02:45:45;100730.06;;;6.23;70.39
50592;BME280;36548;50.506;30.834;2022-12-31T02:51:39;100738.59;;;6.09;68.44
50592;BME280;36548;50.506;30.834;2022-12-31T02:57:23;100745.16;;;5.50;71.30
50592;BME280;36548;50.506;30.834;2022-12-31T02:58:46;100740.23;;;5.39;71.56
50592;BME280;36548;50.506;30.834;2022-12-31T03:00:14;100743.15;;;5.31;71.74
50592;BME280;36548;50.506;30.834;2022-12-31T03:01:43;100741.27;;;5.35;71.94
50592;BME280;36548;50.506;30.834;2022-12-31T03:03:12;100738.05;;;5.50;72.18
50592;BME280;36548;50.506;30.834;2022-12-31T03:04:23;100747.38;;;5.62;71.67
50592;BME280;36548;50.506;30.834;2022-12-31T03:05:45;100737.50;;;5.66;71.20
50592;BME280;36548;50.506;30.834;2022-12-31T03:08:23;100744.07;;;5.80;70.47
50592;BME280;36548;50.506;30.834;2022-12-31T03:09:35;100737.84;;;5.80;70.38
50592;BME280;36548;50.506;30.834;2022-12-31T03:10:50;100736.27;;;6.00;70.55
50592;BME280;36548;50.506;30.834;2022-12-31T03:12:01;100733.81;;;5.93;70.49
50592;BME280;36548;50.506;30.834;2022-12-31T03:13:30;100739.14;;;5.93;70.10
50592;BME280;36548;50.506;30.834;2022-12-31T03:14:38;100732.68;;;6.01;70.32
50592;BME280;36548;50.506;30.834;2022-12-31T03:15:48;100727.23;;;6.04;69.82
50592;BME280;36548;50.506;30.834;2022-12-31T03:17:23;100719.47;;;6.21;70.00
50592;BME280;36548;50.506;30.834;2022-12-31T03:18:32;100726.77;;;6.16;69.82
50592;BME280;36548;50.506;30.834;2022-12-31T03:19:52;100731.27;;;6.38;69.98
50592;BME280;36548;50.506;30.834;2022-12-31T03:21:19;100727.52;;;6.20;68.58
50592;BME280;36548;50.506;30.834;2022-12-31T03:22:46;100728.18;;;6.03;68.62
50592;BME280;36548;50.506;30.834;2022-12-31T03:23:54;100727.48;;;5.97;70.03
50592;BME280;36548;50.506;30.834;2022-12-31T03:25:22;100733.88;;;5.92;70.41
50592;BME280;36548;50.506;30.834;2022-12-31T03:26:43;100733.47;;;5.79;70.39
50592;BME280;36548;50.506;30.834;2022-12-31T03:27:52;100728.30;;;5.74;70.69
50592;BME280;36548;50.506;30.834;2022-12-31T03:29:02;100734.59;;;5.72;70.63
50592;BME280;36548;50.506;30.834;2022-12-31T03:30:13;100742.50;;;5.75;70.75
50592;BME280;36548;50.506;30.834;2022-12-31T03:31:23;100734.27;;;5.81;70.63
50592;BME280;36548;50.506;30.834;2022-12-31T03:32:32;100744.66;;;5.89;70.60
50592;BME280;36548;50.506;30.834;2022-12-31T03:33:42;100745.33;;;5.94;70.01
50592;BME280;36548;50.506;30.834;2022-12-31T03:34:51;100744.35;;;5.96;69.56
50592;BME280;36548;50.506;30.834;2022-12-31T03:36:12;100737.61;;;6.11;69.56
50592;BME280;36548;50.506;30.834;2022-12-31T03:37:22;100744.97;;;6.05;69.68
50592;BME280;36548;50.506;30.834;2022-12-31T03:38:31;100744.63;;;6.14;69.82
50592;BME280;36548;50.506;30.834;2022-12-31T03:39:40;100745.55;;;6.13;69.05
50592;BME280;36548;50.506;30.834;2022-12-31T03:40:52;100746.65;;;6.07;69.00
50592;BME280;36548;50.506;30.834;2022-12-31T03:42:07;100740.34;;;6.10;69.42
50592;BME280;36548;50.506;30.834;2022-12-31T03:43:18;100741.92;;;5.90;69.59
50592;BME280;36548;50.506;30.834;2022-12-31T03:44:27;100738.73;;;5.80;69.97
50592;BME280;36548;50.506;30.834;2022-12-31T03:45:36;100739.77;;;5.76;70.80
50592;BME280;36548;50.506;30.834;2022-12-31T03:46:46;100742.50;;;5.75;71.04
50592;BME280;36548;50.506;30.834;2022-12-31T03:47:55;100743.74;;;5.64;70.31
50592;BME280;36548;50.506;30.834;2022-12-31T03:49:05;100740.66;;;5.52;69.90
50592;BME280;36548;50.506;30.834;2022-12-31T03:50:17;100740.66;;;5.52;70.49
50592;BME280;36548;50.506;30.834;2022-12-31T03:51:26;100745.13;;;5.51;70.17
50592;BME280;36548;50.506;30.834;2022-12-31T03:52:36;100742.41;;;5.53;70.53
50592;BME280;36548;50.506;30.834;2022-12-31T03:53:51;100735.07;;;5.59;70.42
50592;BME280;36548;50.506;30.834;2022-12-31T03:55:00;100739.09;;;5.46;70.47
50592;BME280;36548;50.506;30.834;2022-12-31T03:56:15;100735.07;;;5.59;70.57
50592;BME280;36548;50.506;30.834;2022-12-31T03:57:24;100745.81;;;5.56;70.98
50592;BME280;36548;50.506;30.834;2022-12-31T03:58:34;100744.52;;;5.68;71.23
50592;BME280;36548;50.506;30.834;2022-12-31T03:59:43;100745.91;;;5.78;71.06
50592;BME280;36548;50.506;30.834;2022-12-31T04:00:52;100745.52;;;5.89;70.87
50592;BME280;36548;50.506;30.834;2022-12-31T04:02:02;100734.58;;;5.97;70.00
50592;BME280;36548;50.506;30.834;2022-12-31T04:03:12;100743.41;;;5.99;69.02
50592;BME280;36548;50.506;30.834;2022-12-31T04:04:22;100738.90;;;6.01;68.78
50592;BME280;36548;50.506;30.834;2022-12-31T04:05:31;100744.97;;;6.05;68.59
50592;BME280;36548;50.506;30.834;2022-12-31T04:06:41;100744.41;;;5.95;68.45
50592;BME280;36548;50.506;30.834;2022-12-31T04:07:55;100731.89;;;5.99;68.88
50592;BME280;36548;50.506;30.834;2022-12-31T04:09:04;100738.68;;;5.82;69.51
50592;BME280;36548;50.506;30.834;2022-12-31T04:10:19;100736.88;;;5.83;69.93
50592;BME280;36548;50.506;30.834;2022-12-31T04:11:28;100744.66;;;5.63;69.76
50592;BME280;36548;50.506;30.834;2022-12-31T04:12:37;100748.53;;;5.55;70.00
50592;BME280;36548;50.506;30.834;2022-12-31T04:13:47;100746.16;;;5.47;70.50
50592;BME280;36548;50.506;30.834;2022-12-31T04:15:04;100749.08;;;5.39;70.33
50592;BME280;36548;50.506;30.834;2022-12-31T04:16:14;100759.30;;;5.26;70.92
50592;BME280;36548;50.506;30.834;2022-12-31T04:17:29;100746.36;;;5.41;71.26
50592;BME280;36548;50.506;30.834;2022-12-31T04:18:38;100752.66;;;5.38;71.62
50592;BME280;36548;50.506;30.834;2022-12-31T04:19:46;100761.30;;;5.45;70.96
50592;BME280;36548;50.506;30.834;2022-12-31T04:22:18;100761.53;;;5.64;70.00
50592;BME280;36548;50.506;30.834;2022-12-31T04:23:27;100765.23;;;5.60;70.21
50592;BME280;36548;50.506;30.834;2022-12-31T04:24:38;100776.48;;;5.68;70.15
50592;BME280;36548;50.506;30.834;2022-12-31T04:25:48;100772.78;;;5.72;69.74
50592;BME280;36548;50.506;30.834;2022-12-31T04:26:57;100782.34;;;5.78;69.46
50592;BME280;36548;50.506;30.834;2022-12-31T04:28:09;100777.61;;;5.86;69.52
50592;BME280;36548;50.506;30.834;2022-12-31T04:29:18;100779.30;;;5.89;69.06
50592;BME280;36548;50.506;30.834;2022-12-31T04:30:34;100774.64;;;5.94;69.31
50592;BME280;36548;50.506;30.834;2022-12-31T04:31:43;100787.73;;;5.76;69.54
50592;BME280;36548;50.506;30.834;2022-12-31T04:32:53;100781.09;;;5.63;69.43
50592;BME280;36548;50.506;30.834;2022-12-31T04:34:02;100785.02;;;5.53;69.59
50592;BME280;36548;50.506;30.834;2022-12-31T04:35:11;100791.42;;;5.47;70.29
50592;BME280;36548;50.506;30.834;2022-12-31T04:36:20;100796.09;;;5.40;70.65
50592;BME280;36548;50.506;30.834;2022-12-31T04:37:30;100797.30;;;5.30;70.61
50592;BME280;36548;50.506;30.834;2022-12-31T04:38:39;100801.05;;;5.24;70.60
50592;BME280;36548;50.506;30.834;2022-12-31T04:39:49;100803.04;;;5.18;70.49
50592;BME280;36548;50.506;30.834;2022-12-31T04:40:59;100801.10;;;5.23;71.14
50592;BME280;36548;50.506;30.834;2022-12-31T04:42:28;100797.53;;;5.24;70.63
50592;BME280;36548;50.506;30.834;2022-12-31T04:43:37;100799.97;;;5.30;70.56
50592;BME280;36548;50.506;30.834;2022-12-31T04:44:46;100800.02;;;5.28;70.24
50592;BME280;36548;50.506;30.834;2022-12-31T04:45:56;100800.80;;;5.32;70.22
50592;BME280;36548;50.506;30.834;2022-12-31T04:47:05;100802.44;;;5.36;70.24
50592;BME280;36548;50.506;30.834;2022-12-31T04:48:15;100807.59;;;5.41;70.35
50592;BME280;36548;50.506;30.834;2022-12-31T04:49:24;100806.45;;;5.48;70.54
50592;BME280;36548;50.506;30.834;2022-12-31T04:50:35;100800.16;;;5.51;69.92
50592;BME280;36548;50.506;30.834;2022-12-31T04:51:44;100803.84;;;5.46;69.50
50592;BME280;36548;50.506;30.834;2022-12-31T04:52:52;100810.67;;;5.55;69.91
50592;BME280;36548;50.506;30.834;2022-12-31T04:54:02;100810.55;;;5.58;69.97
50592;BME280;36548;50.506;30.834;2022-12-31T04:55:11;100807.17;;;5.53;69.83
50592;BME280;36548;50.506;30.834;2022-12-31T04:56:21;100808.38;;;5.44;69.92
50592;BME280;36548;50.506;30.834;2022-12-31T04:57:31;100808.51;;;5.40;70.70
50592;BME280;36548;50.506;30.834;2022-12-31T04:58:39;100808.12;;;5.25;70.41
50592;BME280;36548;50.506;30.834;2022-12-31T04:59:55;100808.98;;;5.26;70.96
50592;BME280;36548;50.506;30.834;2022-12-31T05:01:06;100810.73;;;5.00;70.98
50592;BME280;36548;50.506;30.834;2022-12-31T05:02:16;100805.41;;;5.00;71.45
50592;BME280;36548;50.506;30.834;2022-12-31T05:03:28;100813.23;;;5.05;71.98
50592;BME280;36548;50.506;30.834;2022-12-31T05:04:42;100808.12;;;5.25;71.90
50592;BME280;36548;50.506;30.834;2022-12-31T05:05:52;100813.61;;;5.21;71.30
50592;BME280;36548;50.506;30.834;2022-12-31T05:07:01;100810.73;;;5.27;71.19
50592;BME280;36548;50.506;30.834;2022-12-31T05:08:11;100804.21;;;5.36;71.23
50592;BME280;36548;50.506;30.834;2022-12-31T05:09:28;100807.12;;;5.55;70.90
50592;BME280;36548;50.506;30.834;2022-12-31T05:10:42;100808.20;;;5.49;70.61
50592;BME280;36548;50.506;30.834;2022-12-31T05:11:52;100813.34;;;5.55;70.48
50592;BME280;36548;50.506;30.834;2022-12-31T05:13:01;100819.58;;;5.54;70.02
50592;BME280;36548;50.506;30.834;2022-12-31T05:14:11;100817.22;;;5.45;69.71
50592;BME280;36548;50.506;30.834;2022-12-31T05:15:20;100819.58;;;5.54;70.19
50592;BME280;36548;50.506;30.834;2022-12-31T05:16:29;100815.88;;;5.58;70.31
50592;BME280;36548;50.506;30.834;2022-12-31T05:17:39;100814.14;;;5.57;70.25
50592;BME280;36548;50.506;30.834;2022-12-31T05:18:48;100819.58;;;5.54;70.24
50592;BME280;36548;50.506;30.834;2022-12-31T05:19:58;100822.55;;;5.45;69.85
50592;BME280;36548;50.506;30.834;2022-12-31T05:21:09;100819.83;;;5.46;70.31
50592;BME280;36548;50.506;30.834;2022-12-31T05:22:26;100817.52;;;5.62;70.33
50592;BME280;36548;50.506;30.834;2022-12-31T05:23:37;100823.09;;;5.55;70.59
50592;BME280;36548;50.506;30.834;2022-12-31T05:24:46;100824.13;;;5.51;70.64
50592;BME280;36548;50.506;30.834;2022-12-31T05:26:01;100821.16;;;5.60;71.01
50592;BME280;36548;50.506;30.834;2022-12-31T05:27:11;100825.02;;;5.51;70.85
50592;BME280;36548;50.506;30.834;2022-12-31T05:28:21;100834.83;;;5.49;70.03
50592;BME280;36548;50.506;30.834;2022-12-31T05:29:30;100834.05;;;5.45;69.43
50592;BME280;36548;50.506;30.834;2022-12-31T05:30:40;100836.41;;;5.55;70.12
50592;BME280;36548;50.506;30.834;2022-12-31T05:31:55;100841.55;;;5.61;69.13
50592;BME280;36548;50.506;30.834;2022-12-31T05:33:04;100834.03;;;5.47;69.04
50592;BME280;36548;50.506;30.834;2022-12-31T05:34:12;100842.04;;;5.45;69.96
50592;BME280;36548;50.506;30.834;2022-12-31T05:35:21;100840.44;;;5.41;70.28
50592;BME280;36548;50.506;30.834;2022-12-31T05:36:30;100839.82;;;5.33;70.19
50592;BME280;36548;50.506;30.834;2022-12-31T05:37:45;100840.73;;;5.32;70.14
50592;BME280;36548;50.506;30.834;2022-12-31T05:38:55;100843.91;;;5.17;70.43
50592;BME280;36548;50.506;30.834;2022-12-31T05:40:11;100826.75;;;5.25;70.30
50592;BME280;36548;50.506;30.834;2022-12-31T05:41:21;100836.99;;;5.11;69.73
50592;BME280;36548;50.506;30.834;2022-12-31T05:42:37;100822.28;;;5.26;69.80
50592;BME280;36548;50.506;30.834;2022-12-31T05:43:47;100826.13;;;5.17;69.60
50592;BME280;36548;50.506;30.834;2022-12-31T05:44:56;100829.19;;;5.05;69.44
50592;BME280;36548;50.506;30.834;2022-12-31T05:46:05;100830.99;;;5.04;70.19
50592;BME280;36548;50.506;30.834;2022-12-31T05:47:16;100837.23;;;5.03;70.59
50592;BME280;36548;50.506;30.834;2022-12-31T05:48:26;100823.63;;;4.84;70.61
50592;BME280;36548;50.506;30.834;2022-12-31T05:49:36;100828.90;;;4.86;71.50
50592;BME280;36548;50.506;30.834;2022-12-31T05:50:45;100833.52;;;4.81;71.29
50592;BME280;36548;50.506;30.834;2022-12-31T05:51:56;100832.45;;;4.86;71.39
50592;BME280;36548;50.506;30.834;2022-12-31T05:53:06;100827.94;;;4.88;71.10
50592;BME280;36548;50.506;30.834;2022-12-31T05:54:21;100824.59;;;5.10;71.37
50592;BME280;36548;50.506;30.834;2022-12-31T05:55:29;100822.84;;;5.09;71.59
50592;BME280;36548;50.506;30.834;2022-12-31T05:56:39;100832.31;;;5.18;70.81
50592;BME280;36548;50.506;30.834;2022-12-31T05:57:48;100825.00;;;5.24;70.53
50592;BME280;36548;50.506;30.834;2022-12-31T05:59:03;100823.80;;;5.35;69.42
50592;BME280;36548;50.506;30.834;2022-12-31T06:00:16;100832.91;;;5.27;69.68
50592;BME280;36548;50.506;30.834;2022-12-31T06:01:27;100835.24;;;5.37;70.12
50592;BME280;36548;50.506;30.834;2022-12-31T06:02:36;100836.83;;;5.16;69.59
50592;BME280;36548;50.506;30.834;2022-12-31T06:03:45;100839.37;;;4.92;70.20
50592;BME280;36548;50.506;30.834;2022-12-31T06:04:54;100839.84;;;4.76;71.01
50592;BME280;36548;50.506;30.834;2022-12-31T06:06:09;100825.20;;;4.91;71.65
50592;BME280;36548;50.506;30.834;2022-12-31T06:07:18;100834.58;;;4.75;71.58
50592;BME280;36548;50.506;30.834;2022-12-31T06:08:27;100838.16;;;4.74;71.83
50592;BME280;36548;50.506;30.834;2022-12-31T06:09:35;100836.66;;;4.65;72.06
50592;BME280;36548;50.506;30.834;2022-12-31T06:10:46;100837.95;;;4.80;72.46
50592;BME280;36548;50.506;30.834;2022-12-31T06:11:54;100841.59;;;4.77;71.46
50592;BME280;36548;50.506;30.834;2022-12-31T06:13:03;100840.48;;;4.85;71.75
50592;BME280;36548;50.506;30.834;2022-12-31T06:14:13;100835.74;;;4.94;71.79
50592;BME280;36548;50.506;30.834;2022-12-31T06:15:22;100833.66;;;5.04;71.85
50592;BME280;36548;50.506;30.834;2022-12-31T06:16:32;100831.51;;;5.16;71.77
50592;BME280;36548;50.506;30.834;2022-12-31T06:17:41;100833.15;;;5.20;70.67
50592;BME280;36548;50.506;30.834;2022-12-31T06:18:51;100833.77;;;5.28;70.76
50592;BME280;36548;50.506;30.834;2022-12-31T06:20:01;100832.52;;;5.38;71.04
50592;BME280;36548;50.506;30.834;2022-12-31T06:21:12;100842.93;;;5.46;70.48
50592;BME280;36548;50.506;30.834;2022-12-31T06:22:24;100840.99;;;5.51;69.65
50592;BME280;36548;50.506;30.834;2022-12-31T06:23:34;100840.66;;;5.60;69.99
50592;BME280;36548;50.506;30.834;2022-12-31T06:24:42;100839.48;;;5.69;69.88
50592;BME280;36548;50.506;30.834;2022-12-31T06:25:51;100841.55;;;5.61;68.41
50592;BME280;36548;50.506;30.834;2022-12-31T06:27:01;100845.70;;;5.43;69.33
50592;BME280;36548;50.506;30.834;2022-12-31T06:28:10;100838.58;;;5.43;70.16
50592;BME280;36548;50.506;30.834;2022-12-31T06:29:21;100845.38;;;5.25;70.02
50592;BME280;36548;50.506;30.834;2022-12-31T06:30:30;100845.55;;;5.21;71.03
50592;BME280;36548;50.506;30.834;2022-12-31T06:31:40;100846.30;;;5.24;72.03
50592;BME280;36548;50.506;30.834;2022-12-31T06:32:49;100842.10;;;5.17;70.99
50592;BME280;36548;50.506;30.834;2022-12-31T06:33:59;100839.28;;;5.22;70.84
50592;BME280;36548;50.506;30.834;2022-12-31T06:35:08;100846.97;;;5.31;71.16
50592;BME280;36548;50.506;30.834;2022-12-31T06:36:17;100841.92;;;5.23;70.15
50592;BME280;36548;50.506;30.834;2022-12-31T06:37:26;100841.53;;;5.34;70.59
50592;BME280;36548;50.506;30.834;2022-12-31T06:38:42;100836.69;;;5.47;69.59
50592;BME280;36548;50.506;30.834;2022-12-31T06:39:51;100837.11;;;5.35;69.75
50592;BME280;36548;50.506;30.834;2022-12-31T06:41:07;100845.48;;;5.49;70.26
50592;BME280;36548;50.506;30.834;2022-12-31T06:42:16;100848.42;;;5.41;69.47
50592;BME280;36548;50.506;30.834;2022-12-31T06:43:25;100842.50;;;5.32;69.74
50592;BME280;36548;50.506;30.834;2022-12-31T06:44:33;100842.42;;;5.35;70.73
50592;BME280;36548;50.506;30.834;2022-12-31T06:45:42;100848.45;;;5.40;71.05
50592;BME280;36548;50.506;30.834;2022-12-31T06:46:51;100846.67;;;5.40;71.02
50592;BME280;36548;50.506;30.834;2022-12-31T06:48:00;100848.31;;;5.44;71.49
50592;BME280;36548;50.506;30.834;2022-12-31T06:49:09;100855.47;;;5.42;69.92
50592;BME280;36548;50.506;30.834;2022-12-31T06:50:19;100850.00;;;5.47;69.92